Terminal Aerodrome Forecast
Issued by NWS Charleston, SC

Home | Current Version | Previous Version | Text Only | Print | Product List | Glossary On
Versions: 1 2 3 4 5 6 7 8 9 10 11 12 13 14 15
000
FTUS42 KCHS 220739 CCA
TAFCHS
TAF COR
KCHS 220739Z 2207/2306 07006KT P6SM SCT025 BKN040
     FM221500 12011KT P6SM SCT035 BKN200
     FM222300 08004KT P6SM SCT030 BKN180=

USA.gov is the U.S. government's official web portal to all federal, state and local government web resources and services.